^^
TXWeather Station Historical Data
Daily Summary for March 31, 2022 Units:  English    Metric   Both
Daily Weekly Monthly Yearly Custom
  High: Low: Average:
Temperature: 77.0 °F 49.0 °F 63.3 °F
Dew Point: 48.0 °F 41.0 °F 44.1 °F
Humidity: 78% 29% 52%
Wind Speed: 16mph 0mph 5.5mph
Wind Gust: 16mph - -
Wind- - SE
Pressure: 30.0 in 29.8 in -
Precipitation: 0.030 in    
Historical Graphs
 
 
Tabular Data for March 31, 2022
Time Temperature Dew Point Pressure Wind Wind Speed Wind Gust Humidity Rainfall Rate (Hourly) solar
00:04 62.0 °F 45.0 °F 29.8 in North 16 mph 16 mph 55% 0.000 in 0.00 W/m2
00:09 62.0 °F 45.0 °F 29.8 in North 12 mph 14 mph 55% 0.000 in 0.00 W/m2
00:14 61.0 °F 45.0 °F 29.8 in North 9 mph 9 mph 55% 0.000 in 0.00 W/m2
00:19 61.0 °F 45.0 °F 29.8 in North 11 mph 11 mph 55% 0.000 in 0.00 W/m2
00:24 61.0 °F 45.0 °F 29.8 in North 13 mph 14 mph 55% 0.000 in 0.00 W/m2
00:29 61.0 °F 45.0 °F 29.8 in North 10 mph 11 mph 55% 0.000 in 0.00 W/m2
00:34 61.0 °F 44.0 °F 29.8 in North 9 mph 11 mph 55% 0.000 in 0.00 W/m2
00:39 60.0 °F 44.0 °F 29.8 in NNE 11 mph 12 mph 55% 0.000 in 0.00 W/m2
00:44 60.0 °F 44.0 °F 29.8 in NNE 11 mph 12 mph 55% 0.000 in 0.00 W/m2
00:49 60.0 °F 44.0 °F 29.8 in North 11 mph 12 mph 56% 0.000 in 0.00 W/m2
00:54 60.0 °F 44.0 °F 29.8 in North 14 mph 14 mph 56% 0.000 in 0.00 W/m2
00:59 60.0 °F 44.0 °F 29.8 in North 13 mph 14 mph 56% 0.000 in 0.00 W/m2
01:04 60.0 °F 44.0 °F 29.8 in North 12 mph 12 mph 56% 0.000 in 0.00 W/m2
01:09 59.0 °F 44.0 °F 29.8 in North 13 mph 13 mph 56% 0.000 in 0.00 W/m2
01:14 59.0 °F 44.0 °F 29.9 in NNE 8 mph 8 mph 56% 0.000 in 0.00 W/m2
01:19 59.0 °F 44.0 °F 29.9 in North 11 mph 11 mph 57% 0.000 in 0.00 W/m2
01:24 59.0 °F 44.0 °F 29.9 in North 12 mph 14 mph 57% 0.000 in 0.00 W/m2
01:29 59.0 °F 43.0 °F 29.8 in North 13 mph 15 mph 56% 0.000 in 0.00 W/m2
01:34 59.0 °F 43.0 °F 29.8 in NNE 9 mph 10 mph 57% 0.000 in 0.00 W/m2
01:39 59.0 °F 43.0 °F 29.8 in NNE 11 mph 11 mph 57% 0.000 in 0.00 W/m2
01:44 58.0 °F 43.0 °F 29.8 in NE 7 mph 7 mph 58% 0.000 in 0.00 W/m2
01:49 58.0 °F 43.0 °F 29.8 in NNE 7 mph 8 mph 58% 0.000 in 0.00 W/m2
01:54 58.0 °F 43.0 °F 29.8 in NNE 11 mph 13 mph 58% 0.010 in 0.00 W/m2
01:59 58.0 °F 43.0 °F 29.8 in NNE 9 mph 13 mph 58% 0.010 in 0.00 W/m2
02:04 58.0 °F 43.0 °F 29.8 in NNE 9 mph 11 mph 59% 0.010 in 0.00 W/m2
02:09 57.0 °F 43.0 °F 29.8 in NNE 8 mph 9 mph 59% 0.010 in 0.00 W/m2
02:14 57.0 °F 43.0 °F 29.8 in NNE 8 mph 9 mph 59% 0.010 in 0.00 W/m2
02:19 57.0 °F 43.0 °F 29.8 in NNE 12 mph 12 mph 60% 0.010 in 0.00 W/m2
02:24 57.0 °F 43.0 °F 29.8 in NNE 8 mph 9 mph 60% 0.010 in 0.00 W/m2
02:29 57.0 °F 43.0 °F 29.8 in NNE 9 mph 10 mph 61% 0.010 in 0.00 W/m2
02:34 57.0 °F 43.0 °F 29.8 in NNE 11 mph 11 mph 61% 0.010 in 0.00 W/m2
02:39 57.0 °F 44.0 °F 29.8 in NNE 8 mph 9 mph 62% 0.010 in 0.00 W/m2
02:44 56.0 °F 43.0 °F 29.8 in NNE 10 mph 11 mph 62% 0.010 in 0.00 W/m2
02:49 56.0 °F 43.0 °F 29.8 in NNE 11 mph 12 mph 62% 0.010 in 0.00 W/m2
02:54 56.0 °F 43.0 °F 29.8 in NNE 11 mph 11 mph 63% 0.010 in 0.00 W/m2
02:59 56.0 °F 43.0 °F 29.8 in NNE 10 mph 12 mph 63% 0.000 in 0.00 W/m2
03:04 56.0 °F 43.0 °F 29.8 in NNE 8 mph 8 mph 63% 0.000 in 0.00 W/m2
03:09 55.0 °F 43.0 °F 29.8 in NE 8 mph 11 mph 63% 0.000 in 0.00 W/m2
03:14 55.0 °F 43.0 °F 29.8 in NE 7 mph 7 mph 63% 0.000 in 0.00 W/m2
03:19 55.0 °F 43.0 °F 29.8 in East 3 mph 3 mph 63% 0.000 in 0.00 W/m2
03:24 55.0 °F 43.0 °F 29.8 in NNE 5 mph 7 mph 64% 0.000 in 0.00 W/m2
03:29 55.0 °F 43.0 °F 29.8 in NNE 5 mph 7 mph 64% 0.000 in 0.00 W/m2
03:34 55.0 °F 43.0 °F 29.8 in NNE 8 mph 8 mph 64% 0.000 in 0.00 W/m2
03:39 55.0 °F 43.0 °F 29.8 in NNE 7 mph 7 mph 65% 0.000 in 0.00 W/m2
03:44 54.0 °F 43.0 °F 29.8 in NNE 7 mph 7 mph 65% 0.000 in 0.00 W/m2
03:49 54.0 °F 43.0 °F 29.8 in NNE 7 mph 7 mph 65% 0.000 in 0.00 W/m2
03:54 54.0 °F 43.0 °F 29.8 in NNE 5 mph 6 mph 65% 0.000 in 0.00 W/m2
03:59 54.0 °F 42.0 °F 29.8 in NE 2 mph 5 mph 65% 0.000 in 0.00 W/m2
04:04 54.0 °F 43.0 °F 29.8 in NE 2 mph 2 mph 66% 0.000 in 0.00 W/m2
04:09 54.0 °F 43.0 °F 29.8 in NE 3 mph 3 mph 66% 0.000 in 0.00 W/m2
04:14 54.0 °F 43.0 °F 29.8 in NE 3 mph 3 mph 66% 0.000 in 0.00 W/m2
04:19 53.0 °F 42.0 °F 29.8 in NE 3 mph 3 mph 66% 0.000 in 0.00 W/m2
04:24 53.0 °F 43.0 °F 29.8 in NE 2 mph 2 mph 67% 0.000 in 0.00 W/m2
04:29 53.0 °F 43.0 °F 29.8 in NE 2 mph 2 mph 67% 0.000 in 0.00 W/m2
04:34 53.0 °F 42.0 °F 29.8 in NE 2 mph 2 mph 67% 0.000 in 0.00 W/m2
04:39 53.0 °F 42.0 °F 29.8 in NE 1 mph 2 mph 67% 0.000 in 0.00 W/m2
04:44 53.0 °F 42.0 °F 29.8 in NE 1 mph 1 mph 67% 0.000 in 0.00 W/m2
04:49 53.0 °F 42.0 °F 29.8 in NE 2 mph 2 mph 68% 0.000 in 0.00 W/m2
04:54 52.0 °F 42.0 °F 29.8 in NE 2 mph 2 mph 69% 0.000 in 0.00 W/m2
04:59 52.0 °F 42.0 °F 29.8 in NE 2 mph 2 mph 69% 0.000 in 0.00 W/m2
05:04 52.0 °F 42.0 °F 29.8 in ENE 2 mph 2 mph 69% 0.000 in 0.00 W/m2
05:09 52.0 °F 42.0 °F 29.8 in ENE 1 mph 2 mph 70% 0.000 in 0.00 W/m2
05:14 51.0 °F 42.0 °F 29.8 in ENE 1 mph 2 mph 70% 0.000 in 0.00 W/m2
05:19 51.0 °F 42.0 °F 29.8 in ENE 1 mph 2 mph 70% 0.000 in 0.00 W/m2
05:24 51.0 °F 42.0 °F 29.8 in ENE 2 mph 2 mph 70% 0.000 in 0.00 W/m2
05:29 51.0 °F 42.0 °F 29.9 in ENE 1 mph 2 mph 70% 0.000 in 0.00 W/m2
05:34 51.0 °F 41.0 °F 29.9 in ENE 2 mph 2 mph 70% 0.000 in 0.00 W/m2
05:39 51.0 °F 42.0 °F 29.9 in ENE 1 mph 1 mph 71% 0.000 in 0.00 W/m2
05:44 51.0 °F 42.0 °F 29.9 in Calm     71% 0.000 in 0.00 W/m2
05:49 50.0 °F 41.0 °F 29.9 in Calm   1 mph 71% 0.000 in 0.00 W/m2
05:54 50.0 °F 41.0 °F 29.9 in Calm     71% 0.000 in 0.00 W/m2
05:59 50.0 °F 42.0 °F 29.9 in ENE 1 mph 1 mph 72% 0.000 in 0.00 W/m2
06:04 50.0 °F 42.0 °F 29.9 in ENE 1 mph 1 mph 72% 0.000 in 0.00 W/m2
06:09 50.0 °F 41.0 °F 29.9 in ENE 3 mph 3 mph 72% 0.000 in 0.00 W/m2
06:14 50.0 °F 42.0 °F 29.9 in North 4 mph 4 mph 73% 0.000 in 0.00 W/m2
06:19 50.0 °F 41.0 °F 29.9 in NNW 4 mph 5 mph 73% 0.000 in 0.00 W/m2
06:24 50.0 °F 41.0 °F 29.9 in NW 2 mph 5 mph 73% 0.000 in 0.00 W/m2
06:29 50.0 °F 42.0 °F 29.9 in NW 2 mph 3 mph 74% 0.000 in 0.00 W/m2
06:34 50.0 °F 42.0 °F 29.9 in North 3 mph 3 mph 74% 0.000 in 0.00 W/m2
06:39 50.0 °F 42.0 °F 29.9 in North 3 mph 3 mph 74% 0.000 in 0.00 W/m2
06:44 50.0 °F 42.0 °F 29.9 in North 3 mph 3 mph 74% 0.000 in 0.00 W/m2
06:49 50.0 °F 42.0 °F 29.9 in North 3 mph 4 mph 74% 0.000 in 0.00 W/m2
06:54 49.0 °F 41.0 °F 29.9 in North 2 mph 2 mph 74% 0.000 in 0.00 W/m2
06:59 49.0 °F 42.0 °F 29.9 in North 2 mph 2 mph 75% 0.000 in 0.00 W/m2
07:04 49.0 °F 42.0 °F 29.9 in North 2 mph 2 mph 75% 0.000 in 0.00 W/m2
07:09 49.0 °F 42.0 °F 29.9 in North 1 mph 1 mph 75% 0.000 in 0.00 W/m2
07:14 49.0 °F 41.0 °F 29.9 in North 2 mph 2 mph 75% 0.000 in 0.00 W/m2
07:19 49.0 °F 41.0 °F 29.9 in North 4 mph 4 mph 75% 0.010 in 7.00 W/m2
07:24 49.0 °F 42.0 °F 29.9 in North 4 mph 4 mph 76% 0.010 in 9.00 W/m2
07:29 49.0 °F 42.0 °F 29.9 in North 3 mph 3 mph 77% 0.010 in 12.00 W/m2
07:34 49.0 °F 42.0 °F 29.9 in North 2 mph 2 mph 77% 0.010 in 14.00 W/m2
07:39 49.0 °F 42.0 °F 29.9 in North 3 mph 3 mph 77% 0.010 in 18.00 W/m2
07:44 49.0 °F 42.0 °F 29.9 in North 3 mph 3 mph 77% 0.010 in 19.00 W/m2
07:49 49.0 °F 42.0 °F 29.9 in North 2 mph 3 mph 78% 0.010 in 23.00 W/m2
07:54 49.0 °F 42.0 °F 29.9 in NNE 2 mph 2 mph 78% 0.010 in 28.00 W/m2
07:59 49.0 °F 42.0 °F 29.9 in Calm   1 mph 78% 0.010 in 32.00 W/m2
08:04 49.0 °F 43.0 °F 29.9 in NNE 2 mph 2 mph 78% 0.010 in 54.00 W/m2
08:09 49.0 °F 43.0 °F 29.9 in ENE 3 mph 3 mph 78% 0.010 in 62.00 W/m2
08:14 50.0 °F 43.0 °F 29.9 in ESE 3 mph 3 mph 78% 0.010 in 74.00 W/m2
08:19 50.0 °F 44.0 °F 29.9 in SE 5 mph 6 mph 78% 0.010 in 107.00 W/m2
08:24 51.0 °F 44.0 °F 29.9 in SE 4 mph 5 mph 78% 0.000 in 132.00 W/m2
08:29 51.0 °F 44.0 °F 29.9 in ESE 4 mph 4 mph 77% 0.000 in 144.00 W/m2
08:34 52.0 °F 44.0 °F 29.9 in SE 7 mph 7 mph 76% 0.000 in 172.00 W/m2
08:39 53.0 °F 44.0 °F 29.9 in ESE 5 mph 5 mph 75% 0.000 in 204.00 W/m2
08:44 54.0 °F 44.0 °F 29.9 in ESE 7 mph 7 mph 72% 0.000 in 220.00 W/m2
08:49 54.0 °F 44.0 °F 30.0 in SE 3 mph 3 mph 70% 0.000 in 267.00 W/m2
08:54 55.0 °F 44.0 °F 30.0 in East 4 mph 4 mph 69% 0.000 in 297.00 W/m2
08:59 56.0 °F 44.0 °F 30.0 in East 4 mph 4 mph 68% 0.000 in 318.00 W/m2
09:04 56.0 °F 44.0 °F 30.0 in ESE 5 mph 5 mph 66% 0.000 in 339.00 W/m2
09:09 57.0 °F 45.0 °F 30.0 in ESE 8 mph 8 mph 63% 0.000 in 359.00 W/m2
09:14 58.0 °F 45.0 °F 30.0 in SE 7 mph 8 mph 63% 0.000 in 380.00 W/m2
09:19 59.0 °F 45.0 °F 30.0 in East 7 mph 8 mph 62% 0.000 in 396.00 W/m2
09:24 59.0 °F 45.0 °F 30.0 in ESE 5 mph 8 mph 59% 0.000 in 413.00 W/m2
09:29 60.0 °F 45.0 °F 30.0 in East 6 mph 6 mph 59% 0.000 in 436.00 W/m2
09:34 60.0 °F 44.0 °F 30.0 in East 5 mph 6 mph 57% 0.000 in 450.00 W/m2
09:39 60.0 °F 44.0 °F 30.0 in ENE 5 mph 5 mph 55% 0.000 in 473.00 W/m2
09:44 60.0 °F 44.0 °F 30.0 in East 5 mph 5 mph 55% 0.000 in 490.00 W/m2
09:49 61.0 °F 44.0 °F 30.0 in North 5 mph 5 mph 55% 0.000 in 508.00 W/m2
09:54 61.0 °F 45.0 °F 30.0 in NE 6 mph 6 mph 55% 0.000 in 524.00 W/m2
09:59 61.0 °F 45.0 °F 30.0 in NNE 7 mph 7 mph 55% 0.000 in 543.00 W/m2
10:04 61.0 °F 44.0 °F 30.0 in ENE 4 mph 7 mph 54% 0.000 in 557.00 W/m2
10:09 62.0 °F 45.0 °F 30.0 in NNE 5 mph 5 mph 54% 0.000 in 575.00 W/m2
10:14 62.0 °F 45.0 °F 30.0 in NE 6 mph 6 mph 54% 0.000 in 587.00 W/m2
10:19 62.0 °F 45.0 °F 30.0 in East 6 mph 6 mph 53% 0.000 in 606.00 W/m2
10:24 63.0 °F 45.0 °F 30.0 in East 4 mph 4 mph 53% 0.000 in 622.00 W/m2
10:29 63.0 °F 46.0 °F 30.0 in East 4 mph 6 mph 53% 0.000 in 638.00 W/m2
10:34 64.0 °F 46.0 °F 30.0 in ESE 4 mph 6 mph 52% 0.000 in 656.00 W/m2
10:39 64.0 °F 45.0 °F 30.0 in ESE 9 mph 10 mph 50% 0.000 in 668.00 W/m2
10:44 65.0 °F 45.0 °F 30.0 in NNE 5 mph 6 mph 49% 0.000 in 682.00 W/m2
10:49 65.0 °F 45.0 °F 30.0 in ENE 8 mph 8 mph 49% 0.000 in 698.00 W/m2
10:54 66.0 °F 46.0 °F 30.0 in SE 5 mph 8 mph 49% 0.000 in 712.00 W/m2
10:59 66.0 °F 46.0 °F 30.0 in SE 7 mph 8 mph 49% 0.000 in 724.00 W/m2
11:04 66.0 °F 46.0 °F 30.0 in East 4 mph 5 mph 48% 0.000 in 740.00 W/m2
11:09 67.0 °F 46.0 °F 30.0 in ESE 7 mph 7 mph 48% 0.000 in 752.00 W/m2
11:14 67.0 °F 46.0 °F 30.0 in East 8 mph 8 mph 47% 0.000 in 765.00 W/m2
11:19 68.0 °F 47.0 °F 30.0 in SE 7 mph 8 mph 47% 0.000 in 773.00 W/m2
11:24 68.0 °F 47.0 °F 30.0 in NE 4 mph 4 mph 47% 0.000 in 786.00 W/m2
11:29 68.0 °F 46.0 °F 30.0 in SE 6 mph 6 mph 46% 0.010 in 802.00 W/m2
11:34 68.0 °F 47.0 °F 30.0 in SSE 6 mph 6 mph 47% 0.010 in 812.00 W/m2
11:39 69.0 °F 47.0 °F 30.0 in SSE 3 mph 6 mph 47% 0.010 in 816.00 W/m2
11:44 69.0 °F 46.0 °F 30.0 in South 4 mph 4 mph 45% 0.010 in 828.00 W/m2
11:49 69.0 °F 46.0 °F 30.0 in East 4 mph 4 mph 45% 0.010 in 842.00 W/m2
11:54 69.0 °F 45.0 °F 30.0 in East 7 mph 8 mph 43% 0.010 in 853.00 W/m2
11:59 69.0 °F 44.0 °F 30.0 in ENE 5 mph 7 mph 41% 0.010 in 858.00 W/m2
12:04 69.0 °F 46.0 °F 30.0 in ESE 7 mph 8 mph 44% 0.010 in 870.00 W/m2
12:09 70.0 °F 47.0 °F 30.0 in SSE 5 mph 6 mph 45% 0.010 in 877.00 W/m2
12:14 70.0 °F 47.0 °F 30.0 in East 6 mph 6 mph 44% 0.010 in 886.00 W/m2
12:19 70.0 °F 44.0 °F 30.0 in ESE 6 mph 6 mph 39% 0.010 in 891.00 W/m2
12:24 70.0 °F 44.0 °F 30.0 in North 7 mph 7 mph 39% 0.010 in 900.00 W/m2
12:29 70.0 °F 43.0 °F 30.0 in NW 5 mph 6 mph 38% 0.010 in 905.00 W/m2
12:34 70.0 °F 44.0 °F 30.0 in ESE 7 mph 7 mph 39% 0.000 in 911.00 W/m2
12:39 70.0 °F 45.0 °F 30.0 in SE 5 mph 6 mph 40% 0.000 in 914.00 W/m2
12:44 71.0 °F 48.0 °F 30.0 in ESE 4 mph 7 mph 44% 0.000 in 921.00 W/m2
12:49 71.0 °F 47.0 °F 30.0 in NNE 6 mph 7 mph 42% 0.000 in 923.00 W/m2
12:54 71.0 °F 45.0 °F 30.0 in NW 6 mph 6 mph 39% 0.000 in 928.00 W/m2
12:59 71.0 °F 44.0 °F 30.0 in NNW 8 mph 9 mph 38% 0.000 in 930.00 W/m2
13:04 71.0 °F 46.0 °F 30.0 in NW 6 mph 9 mph 41% 0.000 in 933.00 W/m2
13:09 71.0 °F 46.0 °F 30.0 in NNE 6 mph 6 mph 41% 0.000 in 935.00 W/m2
13:14 71.0 °F 46.0 °F 30.0 in North 8 mph 8 mph 41% 0.000 in 935.00 W/m2
13:19 71.0 °F 47.0 °F 30.0 in North 8 mph 9 mph 42% 0.000 in 935.00 W/m2
13:24 72.0 °F 47.0 °F 30.0 in NW 4 mph 8 mph 41% 0.000 in 940.00 W/m2
13:29 72.0 °F 45.0 °F 30.0 in WSW 7 mph 9 mph 38% 0.000 in 939.00 W/m2
13:34 72.0 °F 48.0 °F 30.0 in SSW 4 mph 7 mph 43% 0.000 in 935.00 W/m2
13:39 72.0 °F 48.0 °F 30.0 in NW 9 mph 9 mph 43% 0.000 in 939.00 W/m2
13:44 72.0 °F 43.0 °F 30.0 in WNW 5 mph 9 mph 35% 0.000 in 939.00 W/m2
13:49 73.0 °F 45.0 °F 30.0 in North 6 mph 6 mph 37% 0.000 in 939.00 W/m2
13:54 73.0 °F 48.0 °F 30.0 in SW 7 mph 8 mph 41% 0.000 in 937.00 W/m2
13:59 72.0 °F 43.0 °F 30.0 in WNW 5 mph 5 mph 35% 0.000 in 932.00 W/m2
14:04 73.0 °F 48.0 °F 30.0 in NW 5 mph 5 mph 41% 0.000 in 928.00 W/m2
14:09 73.0 °F 44.0 °F 29.9 in West 11 mph 11 mph 35% 0.000 in 926.00 W/m2
14:14 73.0 °F 43.0 °F 29.9 in WSW 5 mph 11 mph 34% 0.000 in 923.00 W/m2
14:19 73.0 °F 45.0 °F 29.9 in SSE 4 mph 4 mph 37% 0.000 in 918.00 W/m2
14:24 73.0 °F 45.0 °F 29.9 in West 7 mph 9 mph 36% 0.000 in 912.00 W/m2
14:29 74.0 °F 45.0 °F 29.9 in West 8 mph 8 mph 36% 0.000 in 907.00 W/m2
14:34 74.0 °F 44.0 °F 29.9 in WSW 7 mph 7 mph 34% 0.000 in 902.00 W/m2
14:39 74.0 °F 46.0 °F 29.9 in SW 6 mph 7 mph 37% 0.000 in 896.00 W/m2
14:44 74.0 °F 44.0 °F 29.9 in NNW 5 mph 7 mph 34% 0.000 in 888.00 W/m2
14:49 75.0 °F 44.0 °F 29.9 in NNW 6 mph 6 mph 34% 0.000 in 881.00 W/m2
14:54 75.0 °F 44.0 °F 29.9 in North 4 mph 5 mph 34% 0.000 in 875.00 W/m2
14:59 75.0 °F 47.0 °F 29.9 in SW 7 mph 7 mph 38% 0.000 in 867.00 W/m2
15:04 75.0 °F 46.0 °F 29.9 in SW 6 mph 8 mph 36% 0.000 in 860.00 W/m2
15:09 75.0 °F 48.0 °F 29.9 in South 7 mph 8 mph 39% 0.000 in 849.00 W/m2
15:14 75.0 °F 48.0 °F 29.9 in ESE 6 mph 6 mph 39% 0.000 in 840.00 W/m2
15:19 75.0 °F 46.0 °F 29.9 in WNW 6 mph 6 mph 35% 0.000 in 830.00 W/m2
15:24 76.0 °F 45.0 °F 29.9 in NW 6 mph 8 mph 34% 0.000 in 821.00 W/m2
15:29 76.0 °F 45.0 °F 29.9 in North 9 mph 9 mph 33% 0.000 in 809.00 W/m2
15:34 76.0 °F 45.0 °F 29.9 in NW 8 mph 8 mph 33% 0.000 in 798.00 W/m2
15:39 76.0 °F 45.0 °F 29.9 in NW 9 mph 9 mph 33% 0.000 in 784.00 W/m2
15:44 76.0 °F 46.0 °F 29.9 in NNW 5 mph 6 mph 35% 0.000 in 773.00 W/m2
15:49 76.0 °F 45.0 °F 29.9 in NNE 6 mph 6 mph 33% 0.000 in 759.00 W/m2
15:54 76.0 °F 43.0 °F 29.9 in NW 8 mph 8 mph 32% 0.000 in 749.00 W/m2
15:59 75.0 °F 44.0 °F 29.9 in NW 8 mph 10 mph 33% 0.000 in 737.00 W/m2
16:04 76.0 °F 44.0 °F 29.9 in WNW 4 mph 4 mph 32% 0.000 in 724.00 W/m2
16:09 77.0 °F 45.0 °F 29.9 in NW 7 mph 7 mph 33% 0.000 in 710.00 W/m2
16:14 77.0 °F 44.0 °F 29.9 in WSW 9 mph 9 mph 32% 0.000 in 700.00 W/m2
16:19 77.0 °F 45.0 °F 29.9 in NW 5 mph 6 mph 32% 0.000 in 679.00 W/m2
16:24 77.0 °F 47.0 °F 29.9 in NNW 10 mph 10 mph 34% 0.000 in 664.00 W/m2
16:29 77.0 °F 45.0 °F 29.9 in NNW 10 mph 11 mph 32% 0.000 in 650.00 W/m2
16:34 77.0 °F 45.0 °F 29.9 in NNW 9 mph 10 mph 32% 0.000 in 638.00 W/m2
16:39 77.0 °F 44.0 °F 29.9 in NNW 10 mph 10 mph 31% 0.000 in 622.00 W/m2
16:44 76.0 °F 44.0 °F 29.9 in NW 9 mph 10 mph 32% 0.000 in 605.00 W/m2
16:49 77.0 °F 45.0 °F 29.9 in NNE 6 mph 7 mph 33% 0.000 in 591.00 W/m2
16:54 77.0 °F 45.0 °F 29.9 in NNW 14 mph 14 mph 33% 0.000 in 577.00 W/m2
16:59 77.0 °F 44.0 °F 29.9 in NNW 9 mph 14 mph 31% 0.000 in 559.00 W/m2
17:04 77.0 °F 44.0 °F 29.9 in NW 8 mph 10 mph 31% 0.000 in 540.00 W/m2
17:09 77.0 °F 43.0 °F 29.9 in West 6 mph 8 mph 30% 0.000 in 524.00 W/m2
17:14 77.0 °F 43.0 °F 29.9 in NNW 9 mph 9 mph 30% 0.000 in 510.00 W/m2
17:19 77.0 °F 43.0 °F 29.9 in NW 10 mph 10 mph 30% 0.000 in 489.00 W/m2
17:24 77.0 °F 43.0 °F 29.9 in NW 10 mph 10 mph 29% 0.000 in 475.00 W/m2
17:29 77.0 °F 42.0 °F 29.9 in West 6 mph 6 mph 29% 0.000 in 450.00 W/m2
17:34 77.0 °F 43.0 °F 29.9 in NNW 12 mph 12 mph 30% 0.000 in 434.00 W/m2
17:39 77.0 °F 44.0 °F 29.9 in NNW 9 mph 12 mph 31% 0.000 in 415.00 W/m2
17:44 77.0 °F 44.0 °F 29.9 in North 9 mph 9 mph 31% 0.000 in 397.00 W/m2
17:49 77.0 °F 44.0 °F 29.9 in NNW 10 mph 10 mph 31% 0.000 in 378.00 W/m2
17:54 76.0 °F 43.0 °F 29.9 in NW 8 mph 10 mph 31% 0.000 in 359.00 W/m2
17:59 77.0 °F 44.0 °F 29.9 in NW 9 mph 9 mph 32% 0.000 in 338.00 W/m2
18:04 77.0 °F 44.0 °F 29.9 in NNW 11 mph 11 mph 31% 0.000 in 322.00 W/m2
18:09 77.0 °F 43.0 °F 29.9 in NNW 12 mph 12 mph 31% 0.000 in 302.00 W/m2
18:14 76.0 °F 42.0 °F 29.9 in NNW 9 mph 12 mph 30% 0.000 in 281.00 W/m2
18:19 76.0 °F 43.0 °F 29.9 in NW 9 mph 10 mph 31% 0.000 in 260.00 W/m2
18:24 75.0 °F 42.0 °F 29.9 in NNW 9 mph 10 mph 31% 0.000 in 244.00 W/m2
18:29 75.0 °F 43.0 °F 29.9 in NNW 8 mph 10 mph 32% 0.000 in 227.00 W/m2
18:34 75.0 °F 43.0 °F 29.9 in NNW 9 mph 9 mph 32% 0.000 in 207.00 W/m2
18:39 75.0 °F 43.0 °F 29.9 in NW 10 mph 11 mph 32% 0.000 in 179.00 W/m2
18:44 74.0 °F 43.0 °F 29.9 in NW 11 mph 11 mph 33% 0.000 in 158.00 W/m2
18:49 74.0 °F 43.0 °F 29.9 in NNW 8 mph 9 mph 33% 0.000 in 39.00 W/m2
18:54 74.0 °F 44.0 °F 29.9 in NW 9 mph 9 mph 34% 0.000 in 33.00 W/m2
18:59 73.0 °F 43.0 °F 29.9 in NW 10 mph 11 mph 34% 0.000 in 30.00 W/m2
19:04 73.0 °F 43.0 °F 29.9 in NW 9 mph 11 mph 34% 0.000 in 26.00 W/m2
19:09 73.0 °F 43.0 °F 29.9 in NNW 9 mph 10 mph 34% 0.000 in 25.00 W/m2
19:14 72.0 °F 43.0 °F 29.9 in NW 10 mph 10 mph 35% 0.000 in 21.00 W/m2
19:19 72.0 °F 43.0 °F 29.9 in NW 7 mph 10 mph 36% 0.000 in 19.00 W/m2
19:24 72.0 °F 43.0 °F 29.9 in NNW 8 mph 8 mph 36% 0.000 in 16.00 W/m2
19:29 71.0 °F 44.0 °F 29.9 in NNW 9 mph 10 mph 37% 0.000 in 12.00 W/m2
19:34 71.0 °F 44.0 °F 29.9 in NNW 5 mph 6 mph 37% 0.000 in 9.00 W/m2
19:39 71.0 °F 44.0 °F 29.9 in North 5 mph 6 mph 38% 0.000 in 5.00 W/m2
19:44 71.0 °F 44.0 °F 29.9 in North 4 mph 4 mph 38% 0.000 in 0.00 W/m2
19:49 70.0 °F 44.0 °F 29.9 in NNE 3 mph 3 mph 39% 0.000 in 0.00 W/m2
19:54 70.0 °F 44.0 °F 29.9 in NNE 3 mph 3 mph 39% 0.000 in 0.00 W/m2
19:59 70.0 °F 44.0 °F 29.9 in NNE 4 mph 4 mph 40% 0.000 in 0.00 W/m2
20:04 69.0 °F 44.0 °F 29.9 in NE 3 mph 4 mph 41% 0.000 in 0.00 W/m2
20:09 69.0 °F 44.0 °F 29.9 in NE 2 mph 3 mph 41% 0.000 in 0.00 W/m2
20:14 69.0 °F 44.0 °F 29.9 in NE 1 mph 2 mph 41% 0.000 in 0.00 W/m2
20:19 69.0 °F 45.0 °F 29.9 in NE 1 mph 1 mph 42% 0.000 in 0.00 W/m2
20:24 68.0 °F 44.0 °F 29.9 in NE 1 mph 1 mph 42% 0.000 in 0.00 W/m2
20:29 68.0 °F 44.0 °F 29.9 in NE 2 mph 2 mph 43% 0.000 in 0.00 W/m2
20:34 68.0 °F 44.0 °F 29.9 in NE 2 mph 2 mph 43% 0.000 in 0.00 W/m2
20:39 67.0 °F 44.0 °F 29.9 in NE 2 mph 2 mph 44% 0.000 in 0.00 W/m2
20:44 67.0 °F 44.0 °F 30.0 in NE 2 mph 2 mph 44% 0.000 in 0.00 W/m2
20:49 67.0 °F 45.0 °F 30.0 in NE 1 mph 2 mph 45% 0.000 in 0.00 W/m2
20:54 66.0 °F 44.0 °F 30.0 in NE 2 mph 2 mph 45% 0.000 in 0.00 W/m2
20:59 66.0 °F 44.0 °F 30.0 in NE 2 mph 2 mph 46% 0.000 in 0.00 W/m2
21:04 66.0 °F 44.0 °F 30.0 in NE 2 mph 2 mph 46% 0.000 in 0.00 W/m2
21:09 65.0 °F 44.0 °F 30.0 in NE 2 mph 2 mph 47% 0.000 in 0.00 W/m2
21:14 65.0 °F 45.0 °F 30.0 in NE 2 mph 2 mph 48% 0.000 in 0.00 W/m2
21:19 65.0 °F 44.0 °F 30.0 in NE 1 mph 2 mph 48% 0.000 in 0.00 W/m2
21:24 64.0 °F 44.0 °F 30.0 in NE 2 mph 2 mph 49% 0.000 in 0.00 W/m2
21:29 64.0 °F 45.0 °F 30.0 in NE 3 mph 3 mph 50% 0.000 in 0.00 W/m2
21:34 64.0 °F 45.0 °F 30.0 in NE 2 mph 2 mph 51% 0.000 in 0.00 W/m2
21:39 63.0 °F 45.0 °F 30.0 in NE 1 mph 2 mph 51% 0.000 in 0.00 W/m2
21:44 63.0 °F 45.0 °F 30.0 in NE 2 mph 2 mph 51% 0.000 in 0.00 W/m2
21:49 63.0 °F 45.0 °F 30.0 in NE 2 mph 2 mph 52% 0.000 in 0.00 W/m2
21:54 63.0 °F 45.0 °F 30.0 in NE 2 mph 2 mph 52% 0.000 in 0.00 W/m2
21:59 63.0 °F 45.0 °F 30.0 in NE 2 mph 2 mph 53% 0.000 in 0.00 W/m2
22:04 62.0 °F 45.0 °F 30.0 in NE 1 mph 1 mph 53% 0.000 in 0.00 W/m2
22:09 62.0 °F 45.0 °F 30.0 in NE 1 mph 2 mph 53% 0.000 in 0.00 W/m2
22:14 62.0 °F 45.0 °F 30.0 in Calm   1 mph 53% 0.000 in 0.00 W/m2
22:19 62.0 °F 45.0 °F 30.0 in Calm   1 mph 54% 0.000 in 0.00 W/m2
22:24 62.0 °F 45.0 °F 30.0 in Calm     55% 0.000 in 0.00 W/m2
22:29 61.0 °F 45.0 °F 30.0 in NE 1 mph 1 mph 55% 0.000 in 0.00 W/m2
22:34 61.0 °F 45.0 °F 30.0 in ENE 3 mph 3 mph 56% 0.000 in 0.00 W/m2
22:39 61.0 °F 45.0 °F 30.0 in ESE 4 mph 5 mph 57% 0.000 in 0.00 W/m2
22:44 60.0 °F 46.0 °F 30.0 in SE 3 mph 5 mph 58% 0.000 in 0.00 W/m2
22:49 60.0 °F 45.0 °F 30.0 in SE 2 mph 3 mph 58% 0.000 in 0.00 W/m2
22:54 60.0 °F 46.0 °F 30.0 in SE 3 mph 3 mph 59% 0.000 in 0.00 W/m2
22:59 60.0 °F 45.0 °F 30.0 in SE 1 mph 3 mph 59% 0.000 in 0.00 W/m2
23:04 60.0 °F 45.0 °F 30.0 in SE 1 mph 1 mph 59% 0.000 in 0.00 W/m2
23:09 60.0 °F 46.0 °F 30.0 in SE 1 mph 1 mph 60% 0.000 in 0.00 W/m2
23:14 59.0 °F 46.0 °F 30.0 in SE 1 mph 1 mph 60% 0.000 in 0.00 W/m2
23:19 59.0 °F 46.0 °F 30.0 in SE 2 mph 2 mph 61% 0.000 in 0.00 W/m2
23:24 59.0 °F 46.0 °F 30.0 in SE 1 mph 1 mph 61% 0.000 in 0.00 W/m2
23:29 59.0 °F 46.0 °F 30.0 in SE 2 mph 2 mph 61% 0.000 in 0.00 W/m2
23:34 59.0 °F 45.0 °F 30.0 in SE 2 mph 2 mph 61% 0.000 in 0.00 W/m2
23:39 59.0 °F 46.0 °F 30.0 in SE 2 mph 2 mph 62% 0.000 in 0.00 W/m2
23:44 59.0 °F 46.0 °F 30.0 in SE 1 mph 2 mph 62% 0.000 in 0.00 W/m2
23:49 58.0 °F 45.0 °F 30.0 in Calm   1 mph 62% 0.000 in 0.00 W/m2
23:54 58.0 °F 45.0 °F 30.0 in SE 2 mph 2 mph 63% 0.000 in 0.00 W/m2
23:59 58.0 °F 45.0 °F 30.0 in SE 2 mph 2 mph 63% 0.000 in 0.00 W/m2
Villages of Bridgestone, Spring, TX USA
Compliments of Weather Underground - 4 mb